sensor_id;sensor_type;location;lat;lon;timestamp;temperature;humidity
53498;DHT22;39382;47.168;16.008;2023-04-06T00:01:38;-1.40;95.60
53498;DHT22;39382;47.168;16.008;2023-04-06T00:04:05;-1.30;95.80
53498;DHT22;39382;47.168;16.008;2023-04-06T00:06:31;-1.40;96.00
53498;DHT22;39382;47.168;16.008;2023-04-06T00:08:58;-1.50;96.30
53498;DHT22;39382;47.168;16.008;2023-04-06T00:11:24;-1.50;96.60
53498;DHT22;39382;47.168;16.008;2023-04-06T00:13:50;-1.50;96.70
53498;DHT22;39382;47.168;16.008;2023-04-06T00:16:16;-1.50;97.10
53498;DHT22;39382;47.168;16.008;2023-04-06T00:18:41;-1.60;97.10
53498;DHT22;39382;47.168;16.008;2023-04-06T00:21:07;-1.60;97.20
53498;DHT22;39382;47.168;16.008;2023-04-06T00:23:33;-1.60;97.10
53498;DHT22;39382;47.168;16.008;2023-04-06T00:25:59;-1.60;97.10
53498;DHT22;39382;47.168;16.008;2023-04-06T00:28:24;-1.60;97.20
53498;DHT22;39382;47.168;16.008;2023-04-06T00:30:55;-1.60;97.20
53498;DHT22;39382;47.168;16.008;2023-04-06T00:33:21;-1.60;96.90
53498;DHT22;39382;47.168;16.008;2023-04-06T00:35:47;-1.60;96.90
53498;DHT22;39382;47.168;16.008;2023-04-06T00:38:14;-1.60;97.00
53498;DHT22;39382;47.168;16.008;2023-04-06T00:40:40;-1.70;97.00
53498;DHT22;39382;47.168;16.008;2023-04-06T00:43:06;-1.80;97.20
53498;DHT22;39382;47.168;16.008;2023-04-06T00:45:33;-1.80;97.70
53498;DHT22;39382;47.168;16.008;2023-04-06T00:47:59;-1.80;97.90
53498;DHT22;39382;47.168;16.008;2023-04-06T00:50:25;-1.90;98.10
53498;DHT22;39382;47.168;16.008;2023-04-06T00:52:51;-1.80;98.20
53498;DHT22;39382;47.168;16.008;2023-04-06T00:55:17;-1.80;98.20
53498;DHT22;39382;47.168;16.008;2023-04-06T00:57:43;-1.90;98.00
53498;DHT22;39382;47.168;16.008;2023-04-06T01:00:09;-1.90;98.30
53498;DHT22;39382;47.168;16.008;2023-04-06T01:02:37;-1.90;98.20
53498;DHT22;39382;47.168;16.008;2023-04-06T01:05:03;-1.80;97.90
53498;DHT22;39382;47.168;16.008;2023-04-06T01:07:28;-1.80;97.50
53498;DHT22;39382;47.168;16.008;2023-04-06T01:09:54;-1.90;97.40
53498;DHT22;39382;47.168;16.008;2023-04-06T01:12:20;-1.90;97.60
53498;DHT22;39382;47.168;16.008;2023-04-06T01:14:46;-1.90;97.70
53498;DHT22;39382;47.168;16.008;2023-04-06T01:17:12;-1.90;97.90
53498;DHT22;39382;47.168;16.008;2023-04-06T01:19:37;-2.00;98.10
53498;DHT22;39382;47.168;16.008;2023-04-06T01:22:05;-2.00;98.30
53498;DHT22;39382;47.168;16.008;2023-04-06T01:24:30;-2.10;98.40
53498;DHT22;39382;47.168;16.008;2023-04-06T01:26:56;-2.00;98.90
53498;DHT22;39382;47.168;16.008;2023-04-06T01:29:22;-2.20;99.10
53498;DHT22;39382;47.168;16.008;2023-04-06T01:31:47;-2.30;99.50
53498;DHT22;39382;47.168;16.008;2023-04-06T01:34:13;-2.30;99.80
53498;DHT22;39382;47.168;16.008;2023-04-06T01:36:39;-2.40;99.90
53498;DHT22;39382;47.168;16.008;2023-04-06T01:39:04;-2.40;99.90
53498;DHT22;39382;47.168;16.008;2023-04-06T01:41:30;-2.30;99.90
53498;DHT22;39382;47.168;16.008;2023-04-06T01:43:56;-2.30;99.90
53498;DHT22;39382;47.168;16.008;2023-04-06T01:46:22;-2.40;99.90
53498;DHT22;39382;47.168;16.008;2023-04-06T01:48:48;-2.40;99.90
53498;DHT22;39382;47.168;16.008;2023-04-06T01:51:14;-2.40;99.90
53498;DHT22;39382;47.168;16.008;2023-04-06T01:53:40;-2.40;99.90
53498;DHT22;39382;47.168;16.008;2023-04-06T01:56:06;-2.40;99.90
53498;DHT22;39382;47.168;16.008;2023-04-06T01:58:31;-2.40;99.90
53498;DHT22;39382;47.168;16.008;2023-04-06T02:00:57;-2.30;99.90
53498;DHT22;39382;47.168;16.008;2023-04-06T02:03:23;-2.40;99.90
53498;DHT22;39382;47.168;16.008;2023-04-06T02:05:49;-2.50;99.90
53498;DHT22;39382;47.168;16.008;2023-04-06T02:08:14;-2.50;99.90
53498;DHT22;39382;47.168;16.008;2023-04-06T02:10:40;-2.50;99.90
53498;DHT22;39382;47.168;16.008;2023-04-06T02:13:06;-2.60;99.90
53498;DHT22;39382;47.168;16.008;2023-04-06T02:15:32;-2.70;99.90
53498;DHT22;39382;47.168;16.008;2023-04-06T02:17:58;-2.60;99.90
53498;DHT22;39382;47.168;16.008;2023-04-06T02:20:24;-2.70;99.90
53498;DHT22;39382;47.168;16.008;2023-04-06T02:22:49;-2.70;99.90
53498;DHT22;39382;47.168;16.008;2023-04-06T02:25:15;-2.60;99.90
53498;DHT22;39382;47.168;16.008;2023-04-06T02:27:41;-2.70;99.90
53498;DHT22;39382;47.168;16.008;2023-04-06T02:30:07;-2.60;99.90
53498;DHT22;39382;47.168;16.008;2023-04-06T02:32:33;-2.60;99.90
53498;DHT22;39382;47.168;16.008;2023-04-06T02:34:59;-2.60;99.90
53498;DHT22;39382;47.168;16.008;2023-04-06T02:37:24;-2.60;99.90
53498;DHT22;39382;47.168;16.008;2023-04-06T02:39:50;-2.60;99.90
53498;DHT22;39382;47.168;16.008;2023-04-06T02:42:16;-2.70;99.90
53498;DHT22;39382;47.168;16.008;2023-04-06T02:44:42;-2.70;99.90
53498;DHT22;39382;47.168;16.008;2023-04-06T02:47:08;-2.70;99.90
53498;DHT22;39382;47.168;16.008;2023-04-06T02:49:35;-2.80;99.90
53498;DHT22;39382;47.168;16.008;2023-04-06T02:52:00;-2.80;99.90
53498;DHT22;39382;47.168;16.008;2023-04-06T02:54:26;-2.70;99.90
53498;DHT22;39382;47.168;16.008;2023-04-06T02:56:52;-2.80;99.90
53498;DHT22;39382;47.168;16.008;2023-04-06T02:59:18;-2.80;99.90
53498;DHT22;39382;47.168;16.008;2023-04-06T03:01:43;-2.80;99.90
53498;DHT22;39382;47.168;16.008;2023-04-06T03:04:09;-2.70;99.90
53498;DHT22;39382;47.168;16.008;2023-04-06T03:06:35;-2.70;99.90
53498;DHT22;39382;47.168;16.008;2023-04-06T03:09:00;-2.70;99.90
53498;DHT22;39382;47.168;16.008;2023-04-06T03:11:26;-2.70;99.90
53498;DHT22;39382;47.168;16.008;2023-04-06T03:13:52;-2.70;99.90
53498;DHT22;39382;47.168;16.008;2023-04-06T03:16:17;-2.70;99.90
53498;DHT22;39382;47.168;16.008;2023-04-06T03:18:43;-2.70;99.90
53498;DHT22;39382;47.168;16.008;2023-04-06T03:21:13;-2.80;99.90
53498;DHT22;39382;47.168;16.008;2023-04-06T03:23:41;-2.90;99.90
53498;DHT22;39382;47.168;16.008;2023-04-06T03:26:08;-2.90;99.90
53498;DHT22;39382;47.168;16.008;2023-04-06T03:28:33;-2.80;99.90
53498;DHT22;39382;47.168;16.008;2023-04-06T03:30:59;-2.80;99.90
53498;DHT22;39382;47.168;16.008;2023-04-06T03:33:25;-2.80;99.90
53498;DHT22;39382;47.168;16.008;2023-04-06T03:35:54;-2.90;99.90
53498;DHT22;39382;47.168;16.008;2023-04-06T03:38:20;-2.90;99.90
53498;DHT22;39382;47.168;16.008;2023-04-06T03:40:45;-2.90;99.90
53498;DHT22;39382;47.168;16.008;2023-04-06T03:43:11;-3.00;99.90
53498;DHT22;39382;47.168;16.008;2023-04-06T03:45:37;-2.80;99.90
53498;DHT22;39382;47.168;16.008;2023-04-06T03:48:03;-3.00;99.90
53498;DHT22;39382;47.168;16.008;2023-04-06T03:50:29;-3.00;99.90
53498;DHT22;39382;47.168;16.008;2023-04-06T03:52:55;-3.00;99.90
53498;DHT22;39382;47.168;16.008;2023-04-06T03:55:21;-3.00;99.90
53498;DHT22;39382;47.168;16.008;2023-04-06T03:57:46;-3.10;99.90
53498;DHT22;39382;47.168;16.008;2023-04-06T04:00:12;-3.10;99.90
53498;DHT22;39382;47.168;16.008;2023-04-06T04:02:39;-3.00;99.90
53498;DHT22;39382;47.168;16.008;2023-04-06T04:05:05;-2.90;99.90
53498;DHT22;39382;47.168;16.008;2023-04-06T04:07:31;-2.90;99.90
53498;DHT22;39382;47.168;16.008;2023-04-06T04:09:57;-2.90;99.90
53498;DHT22;39382;47.168;16.008;2023-04-06T04:12:22;-3.00;99.90
53498;DHT22;39382;47.168;16.008;2023-04-06T04:14:48;-3.00;99.90
53498;DHT22;39382;47.168;16.008;2023-04-06T04:17:15;-3.10;99.90
53498;DHT22;39382;47.168;16.008;2023-04-06T04:19:40;-3.10;99.90
53498;DHT22;39382;47.168;16.008;2023-04-06T04:22:06;-3.10;99.90
53498;DHT22;39382;47.168;16.008;2023-04-06T04:24:32;-3.10;99.90
53498;DHT22;39382;47.168;16.008;2023-04-06T04:26:59;-3.10;99.90
53498;DHT22;39382;47.168;16.008;2023-04-06T04:29:26;-3.20;99.90
53498;DHT22;39382;47.168;16.008;2023-04-06T04:31:51;-3.20;99.90
53498;DHT22;39382;47.168;16.008;2023-04-06T04:34:18;-3.20;99.90
53498;DHT22;39382;47.168;16.008;2023-04-06T04:36:46;-3.30;99.90
53498;DHT22;39382;47.168;16.008;2023-04-06T04:39:11;-2.40;99.90
53498;DHT22;39382;47.168;16.008;2023-04-06T04:41:37;-2.00;99.90
53498;DHT22;39382;47.168;16.008;2023-04-06T04:44:03;-2.20;99.90
53498;DHT22;39382;47.168;16.008;2023-04-06T04:46:29;-2.50;99.90
53498;DHT22;39382;47.168;16.008;2023-04-06T04:48:54;-2.60;99.90
53498;DHT22;39382;47.168;16.008;2023-04-06T04:51:20;-2.70;99.90
53498;DHT22;39382;47.168;16.008;2023-04-06T04:53:46;-2.80;99.90
53498;DHT22;39382;47.168;16.008;2023-04-06T04:56:11;-2.90;99.90
53498;DHT22;39382;47.168;16.008;2023-04-06T04:58:37;-2.90;99.90
53498;DHT22;39382;47.168;16.008;2023-04-06T05:01:03;-3.00;99.90
53498;DHT22;39382;47.168;16.008;2023-04-06T05:03:29;-3.00;99.90
53498;DHT22;39382;47.168;16.008;2023-04-06T05:05:54;-3.00;99.90
53498;DHT22;39382;47.168;16.008;2023-04-06T05:08:20;-3.00;99.90
53498;DHT22;39382;47.168;16.008;2023-04-06T05:10:46;-2.90;99.90
53498;DHT22;39382;47.168;16.008;2023-04-06T05:13:14;-2.80;99.90
53498;DHT22;39382;47.168;16.008;2023-04-06T05:15:40;-2.80;99.90
53498;DHT22;39382;47.168;16.008;2023-04-06T05:18:09;-2.70;99.90
53498;DHT22;39382;47.168;16.008;2023-04-06T05:20:35;-2.60;99.90
53498;DHT22;39382;47.168;16.008;2023-04-06T05:23:01;-2.50;99.90
53498;DHT22;39382;47.168;16.008;2023-04-06T05:25:27;-2.50;99.90
53498;DHT22;39382;47.168;16.008;2023-04-06T05:27:53;-2.50;99.90
53498;DHT22;39382;47.168;16.008;2023-04-06T05:30:19;-2.40;99.90
53498;DHT22;39382;47.168;16.008;2023-04-06T05:32:46;-2.40;99.90
53498;DHT22;39382;47.168;16.008;2023-04-06T05:35:12;-2.30;99.90
53498;DHT22;39382;47.168;16.008;2023-04-06T05:37:38;-2.20;99.90
53498;DHT22;39382;47.168;16.008;2023-04-06T05:40:04;-2.10;99.90
53498;DHT22;39382;47.168;16.008;2023-04-06T05:42:40;-2.00;99.90
53498;DHT22;39382;47.168;16.008;2023-04-06T05:45:07;-2.00;99.90
53498;DHT22;39382;47.168;16.008;2023-04-06T05:47:33;-2.00;99.90
53498;DHT22;39382;47.168;16.008;2023-04-06T05:49:59;-1.90;99.90
53498;DHT22;39382;47.168;16.008;2023-04-06T05:52:24;-1.80;99.90
53498;DHT22;39382;47.168;16.008;2023-04-06T05:54:51;-1.70;99.90
53498;DHT22;39382;47.168;16.008;2023-04-06T05:57:17;-1.60;99.90
53498;DHT22;39382;47.168;16.008;2023-04-06T05:59:43;-1.50;99.90
53498;DHT22;39382;47.168;16.008;2023-04-06T06:02:08;-1.40;99.90
53498;DHT22;39382;47.168;16.008;2023-04-06T06:04:34;-1.30;99.90
53498;DHT22;39382;47.168;16.008;2023-04-06T06:07:00;-1.20;99.90
53498;DHT22;39382;47.168;16.008;2023-04-06T06:09:26;-1.10;99.90
53498;DHT22;39382;47.168;16.008;2023-04-06T06:11:52;-1.00;99.90
53498;DHT22;39382;47.168;16.008;2023-04-06T06:14:17;-0.90;99.50
53498;DHT22;39382;47.168;16.008;2023-04-06T06:16:43;-0.70;98.60
53498;DHT22;39382;47.168;16.008;2023-04-06T06:19:09;-0.60;98.00
53498;DHT22;39382;47.168;16.008;2023-04-06T06:21:34;-0.40;97.20
53498;DHT22;39382;47.168;16.008;2023-04-06T06:24:00;-0.20;96.40
53498;DHT22;39382;47.168;16.008;2023-04-06T06:26:26;0.00;95.90
53498;DHT22;39382;47.168;16.008;2023-04-06T06:28:52;0.20;95.60
53498;DHT22;39382;47.168;16.008;2023-04-06T06:31:17;0.30;95.10
53498;DHT22;39382;47.168;16.008;2023-04-06T06:33:48;0.50;94.40
53498;DHT22;39382;47.168;16.008;2023-04-06T06:36:16;0.60;94.00
53498;DHT22;39382;47.168;16.008;2023-04-06T06:38:42;0.80;93.40
53498;DHT22;39382;47.168;16.008;2023-04-06T06:41:08;1.00;93.20
53498;DHT22;39382;47.168;16.008;2023-04-06T06:43:34;1.20;92.80
53498;DHT22;39382;47.168;16.008;2023-04-06T06:45:59;1.40;91.90
53498;DHT22;39382;47.168;16.008;2023-04-06T06:48:25;1.60;91.30
53498;DHT22;39382;47.168;16.008;2023-04-06T06:50:51;1.80;90.70
53498;DHT22;39382;47.168;16.008;2023-04-06T06:53:17;1.90;90.20
53498;DHT22;39382;47.168;16.008;2023-04-06T06:55:43;2.20;89.10
53498;DHT22;39382;47.168;16.008;2023-04-06T06:58:09;2.40;88.20
53498;DHT22;39382;47.168;16.008;2023-04-06T07:00:35;2.50;86.90
53498;DHT22;39382;47.168;16.008;2023-04-06T07:03:01;2.70;85.00
53498;DHT22;39382;47.168;16.008;2023-04-06T07:05:27;2.90;82.70
53498;DHT22;39382;47.168;16.008;2023-04-06T07:07:53;3.10;81.80
53498;DHT22;39382;47.168;16.008;2023-04-06T07:10:18;3.30;80.40
53498;DHT22;39382;47.168;16.008;2023-04-06T07:12:44;3.50;79.20
53498;DHT22;39382;47.168;16.008;2023-04-06T07:15:11;3.70;78.60
53498;DHT22;39382;47.168;16.008;2023-04-06T07:17:37;3.80;75.20
53498;DHT22;39382;47.168;16.008;2023-04-06T07:20:03;4.00;74.40
53498;DHT22;39382;47.168;16.008;2023-04-06T07:22:29;4.20;73.90
53498;DHT22;39382;47.168;16.008;2023-04-06T07:24:54;4.50;70.70
53498;DHT22;39382;47.168;16.008;2023-04-06T07:27:20;4.70;64.70
53498;DHT22;39382;47.168;16.008;2023-04-06T07:29:46;4.80;64.00
53498;DHT22;39382;47.168;16.008;2023-04-06T07:32:12;5.00;62.40
53498;DHT22;39382;47.168;16.008;2023-04-06T07:34:38;5.20;62.00
53498;DHT22;39382;47.168;16.008;2023-04-06T07:37:03;5.40;61.80
53498;DHT22;39382;47.168;16.008;2023-04-06T07:39:29;5.50;61.10
53498;DHT22;39382;47.168;16.008;2023-04-06T07:41:55;5.60;60.00
53498;DHT22;39382;47.168;16.008;2023-04-06T07:44:22;5.60;59.60
53498;DHT22;39382;47.168;16.008;2023-04-06T07:46:48;5.70;58.70
53498;DHT22;39382;47.168;16.008;2023-04-06T07:49:13;5.80;57.10
53498;DHT22;39382;47.168;16.008;2023-04-06T07:51:39;5.80;57.10
53498;DHT22;39382;47.168;16.008;2023-04-06T07:54:05;5.90;57.70
53498;DHT22;39382;47.168;16.008;2023-04-06T07:56:31;5.80;58.10
53498;DHT22;39382;47.168;16.008;2023-04-06T07:58:57;5.80;57.10
53498;DHT22;39382;47.168;16.008;2023-04-06T08:01:23;5.90;58.40
53498;DHT22;39382;47.168;16.008;2023-04-06T08:03:49;6.20;59.30
53498;DHT22;39382;47.168;16.008;2023-04-06T08:06:16;6.30;56.90
53498;DHT22;39382;47.168;16.008;2023-04-06T08:08:42;6.40;56.20
53498;DHT22;39382;47.168;16.008;2023-04-06T08:11:09;7.40;74.50
53498;DHT22;39382;47.168;16.008;2023-04-06T08:13:35;7.80;59.80
53498;DHT22;39382;47.168;16.008;2023-04-06T08:16:01;8.20;57.20
53498;DHT22;39382;47.168;16.008;2023-04-06T08:18:27;8.50;58.20
53498;DHT22;39382;47.168;16.008;2023-04-06T08:20:54;8.90;55.60
53498;DHT22;39382;47.168;16.008;2023-04-06T08:23:20;9.10;53.50
53498;DHT22;39382;47.168;16.008;2023-04-06T08:25:46;9.20;54.00
53498;DHT22;39382;47.168;16.008;2023-04-06T08:28:12;9.10;51.20
53498;DHT22;39382;47.168;16.008;2023-04-06T08:30:40;8.80;49.90
53498;DHT22;39382;47.168;16.008;2023-04-06T08:33:06;8.70;51.40
53498;DHT22;39382;47.168;16.008;2023-04-06T08:35:31;8.90;51.90
53498;DHT22;39382;47.168;16.008;2023-04-06T08:37:57;8.90;51.50
53498;DHT22;39382;47.168;16.008;2023-04-06T08:40:23;9.10;51.30
53498;DHT22;39382;47.168;16.008;2023-04-06T08:42:54;9.20;51.70
53498;DHT22;39382;47.168;16.008;2023-04-06T08:45:21;9.30;49.70
53498;DHT22;39382;47.168;16.008;2023-04-06T08:47:50;9.20;48.90
53498;DHT22;39382;47.168;16.008;2023-04-06T08:50:16;8.80;47.20
53498;DHT22;39382;47.168;16.008;2023-04-06T08:52:44;8.50;48.10
53498;DHT22;39382;47.168;16.008;2023-04-06T08:55:11;8.70;49.00
53498;DHT22;39382;47.168;16.008;2023-04-06T08:57:38;8.70;48.00
53498;DHT22;39382;47.168;16.008;2023-04-06T09:00:05;8.70;47.30
53498;DHT22;39382;47.168;16.008;2023-04-06T09:02:31;8.70;47.70
53498;DHT22;39382;47.168;16.008;2023-04-06T09:04:58;8.80;48.00
53498;DHT22;39382;47.168;16.008;2023-04-06T09:07:24;8.80;48.00
53498;DHT22;39382;47.168;16.008;2023-04-06T09:09:50;9.00;48.10
53498;DHT22;39382;47.168;16.008;2023-04-06T09:12:27;9.00;46.50
53498;DHT22;39382;47.168;16.008;2023-04-06T09:14:55;9.10;47.60
53498;DHT22;39382;47.168;16.008;2023-04-06T09:17:31;9.00;46.60
53498;DHT22;39382;47.168;16.008;2023-04-06T09:20:00;9.00;45.80
53498;DHT22;39382;47.168;16.008;2023-04-06T09:22:34;9.00;46.20
53498;DHT22;39382;47.168;16.008;2023-04-06T09:25:00;9.20;47.10
53498;DHT22;39382;47.168;16.008;2023-04-06T09:27:38;9.10;45.90
53498;DHT22;39382;47.168;16.008;2023-04-06T09:30:10;9.20;46.50
53498;DHT22;39382;47.168;16.008;2023-04-06T09:33:03;9.40;46.70
53498;DHT22;39382;47.168;16.008;2023-04-06T09:35:29;9.40;45.70
53498;DHT22;39382;47.168;16.008;2023-04-06T09:37:56;9.40;44.80
53498;DHT22;39382;47.168;16.008;2023-04-06T09:40:22;9.10;45.00
53498;DHT22;39382;47.168;16.008;2023-04-06T09:42:49;9.00;45.30
53498;DHT22;39382;47.168;16.008;2023-04-06T09:45:19;9.10;46.40
53498;DHT22;39382;47.168;16.008;2023-04-06T09:47:46;9.10;45.80
53498;DHT22;39382;47.168;16.008;2023-04-06T09:50:13;9.40;48.50
53498;DHT22;39382;47.168;16.008;2023-04-06T09:52:47;9.60;47.30
53498;DHT22;39382;47.168;16.008;2023-04-06T09:55:35;9.80;46.10
53498;DHT22;39382;47.168;16.008;2023-04-06T09:58:06;9.90;45.00
53498;DHT22;39382;47.168;16.008;2023-04-06T10:01:02;10.00;46.70
53498;DHT22;39382;47.168;16.008;2023-04-06T10:04:10;10.10;47.90
53498;DHT22;39382;47.168;16.008;2023-04-06T10:06:38;10.40;45.00
53498;DHT22;39382;47.168;16.008;2023-04-06T10:09:06;10.20;43.60
53498;DHT22;39382;47.168;16.008;2023-04-06T10:11:34;10.20;44.60
53498;DHT22;39382;47.168;16.008;2023-04-06T10:14:00;10.20;45.00
53498;DHT22;39382;47.168;16.008;2023-04-06T10:16:26;10.10;44.20
53498;DHT22;39382;47.168;16.008;2023-04-06T10:18:58;10.10;43.60
53498;DHT22;39382;47.168;16.008;2023-04-06T10:21:27;10.10;43.60
53498;DHT22;39382;47.168;16.008;2023-04-06T10:24:01;10.10;42.90
53498;DHT22;39382;47.168;16.008;2023-04-06T10:26:27;10.00;43.90
53498;DHT22;39382;47.168;16.008;2023-04-06T10:28:54;9.80;43.70
53498;DHT22;39382;47.168;16.008;2023-04-06T10:31:27;9.90;44.10
53498;DHT22;39382;47.168;16.008;2023-04-06T10:33:58;10.00;43.90
53498;DHT22;39382;47.168;16.008;2023-04-06T10:36:26;10.20;47.40
53498;DHT22;39382;47.168;16.008;2023-04-06T10:39:00;10.20;46.40
53498;DHT22;39382;47.168;16.008;2023-04-06T10:41:44;10.20;43.30
53498;DHT22;39382;47.168;16.008;2023-04-06T10:44:23;10.00;44.10
53498;DHT22;39382;47.168;16.008;2023-04-06T10:46:56;9.90;43.70
53498;DHT22;39382;47.168;16.008;2023-04-06T10:49:22;10.00;44.60
53498;DHT22;39382;47.168;16.008;2023-04-06T10:51:56;10.10;45.20
53498;DHT22;39382;47.168;16.008;2023-04-06T10:54:24;10.10;44.40
53498;DHT22;39382;47.168;16.008;2023-04-06T10:56:50;10.00;42.80
53498;DHT22;39382;47.168;16.008;2023-04-06T10:59:20;10.20;44.90
53498;DHT22;39382;47.168;16.008;2023-04-06T11:01:46;10.30;43.60
53498;DHT22;39382;47.168;16.008;2023-04-06T11:04:19;10.50;44.60
53498;DHT22;39382;47.168;16.008;2023-04-06T11:06:49;10.40;42.40
53498;DHT22;39382;47.168;16.008;2023-04-06T11:09:29;10.50;42.70
53498;DHT22;39382;47.168;16.008;2023-04-06T11:11:55;10.50;42.90
53498;DHT22;39382;47.168;16.008;2023-04-06T11:14:22;10.50;42.60
53498;DHT22;39382;47.168;16.008;2023-04-06T11:16:48;10.80;43.50
53498;DHT22;39382;47.168;16.008;2023-04-06T11:19:15;10.50;41.70
53498;DHT22;39382;47.168;16.008;2023-04-06T11:21:43;10.70;42.90
53498;DHT22;39382;47.168;16.008;2023-04-06T11:29:17;10.60;42.60
53498;DHT22;39382;47.168;16.008;2023-04-06T11:31:46;10.90;42.30
53498;DHT22;39382;47.168;16.008;2023-04-06T11:34:23;11.10;42.40
53498;DHT22;39382;47.168;16.008;2023-04-06T11:36:55;11.10;41.50
53498;DHT22;39382;47.168;16.008;2023-04-06T11:39:23;10.90;41.20
53498;DHT22;39382;47.168;16.008;2023-04-06T11:41:50;11.10;42.20
53498;DHT22;39382;47.168;16.008;2023-04-06T11:44:34;10.90;40.20
53498;DHT22;39382;47.168;16.008;2023-04-06T11:47:04;11.10;40.40
53498;DHT22;39382;47.168;16.008;2023-04-06T11:49:31;11.20;40.80
53498;DHT22;39382;47.168;16.008;2023-04-06T11:51:58;11.30;40.40
53498;DHT22;39382;47.168;16.008;2023-04-06T11:54:37;11.70;48.60
53498;DHT22;39382;47.168;16.008;2023-04-06T11:57:04;12.00;43.20
53498;DHT22;39382;47.168;16.008;2023-04-06T11:59:31;12.10;42.10
53498;DHT22;39382;47.168;16.008;2023-04-06T12:01:57;12.00;40.10
53498;DHT22;39382;47.168;16.008;2023-04-06T12:04:23;12.10;41.30
53498;DHT22;39382;47.168;16.008;2023-04-06T12:06:49;12.30;40.70
53498;DHT22;39382;47.168;16.008;2023-04-06T12:09:16;12.40;41.80
53498;DHT22;39382;47.168;16.008;2023-04-06T12:11:43;12.40;41.40
53498;DHT22;39382;47.168;16.008;2023-04-06T12:14:08;12.50;40.70
53498;DHT22;39382;47.168;16.008;2023-04-06T12:16:35;12.50;40.30
53498;DHT22;39382;47.168;16.008;2023-04-06T12:19:00;12.50;39.50
53498;DHT22;39382;47.168;16.008;2023-04-06T12:21:30;12.60;39.80
53498;DHT22;39382;47.168;16.008;2023-04-06T12:23:59;12.70;38.70
53498;DHT22;39382;47.168;16.008;2023-04-06T12:26:25;12.80;39.10
53498;DHT22;39382;47.168;16.008;2023-04-06T12:28:51;12.90;38.20
53498;DHT22;39382;47.168;16.008;2023-04-06T12:31:17;12.90;37.60
53498;DHT22;39382;47.168;16.008;2023-04-06T12:33:46;12.80;38.70
53498;DHT22;39382;47.168;16.008;2023-04-06T12:36:14;12.90;40.20
53498;DHT22;39382;47.168;16.008;2023-04-06T12:38:41;13.00;41.30
53498;DHT22;39382;47.168;16.008;2023-04-06T12:41:07;13.10;40.80
53498;DHT22;39382;47.168;16.008;2023-04-06T12:43:33;13.20;40.10
53498;DHT22;39382;47.168;16.008;2023-04-06T12:45:59;13.30;39.30
53498;DHT22;39382;47.168;16.008;2023-04-06T12:48:25;13.20;40.10
53498;DHT22;39382;47.168;16.008;2023-04-06T12:51:00;13.20;39.70
53498;DHT22;39382;47.168;16.008;2023-04-06T12:53:26;13.30;39.60
53498;DHT22;39382;47.168;16.008;2023-04-06T12:55:56;13.30;40.10
53498;DHT22;39382;47.168;16.008;2023-04-06T12:58:22;13.20;38.90
53498;DHT22;39382;47.168;16.008;2023-04-06T13:00:49;13.20;38.70
53498;DHT22;39382;47.168;16.008;2023-04-06T13:03:16;13.10;37.90
53498;DHT22;39382;47.168;16.008;2023-04-06T13:05:46;12.90;37.00
53498;DHT22;39382;47.168;16.008;2023-04-06T13:08:13;12.80;37.00
53498;DHT22;39382;47.168;16.008;2023-04-06T13:10:50;12.60;37.20
53498;DHT22;39382;47.168;16.008;2023-04-06T13:13:23;12.90;36.80
53498;DHT22;39382;47.168;16.008;2023-04-06T13:15:50;13.20;37.50
53498;DHT22;39382;47.168;16.008;2023-04-06T13:18:16;13.30;36.70
53498;DHT22;39382;47.168;16.008;2023-04-06T13:20:42;13.40;37.70
53498;DHT22;39382;47.168;16.008;2023-04-06T13:23:08;13.30;36.00
53498;DHT22;39382;47.168;16.008;2023-04-06T13:25:34;12.60;36.30
53498;DHT22;39382;47.168;16.008;2023-04-06T13:27:59;12.80;36.70
53498;DHT22;39382;47.168;16.008;2023-04-06T13:30:25;12.90;37.00
53498;DHT22;39382;47.168;16.008;2023-04-06T13:32:51;13.00;40.00
53498;DHT22;39382;47.168;16.008;2023-04-06T13:35:17;13.00;39.30
53498;DHT22;39382;47.168;16.008;2023-04-06T13:37:43;13.20;41.10
53498;DHT22;39382;47.168;16.008;2023-04-06T13:40:10;13.30;39.10
53498;DHT22;39382;47.168;16.008;2023-04-06T13:42:36;13.20;38.80
53498;DHT22;39382;47.168;16.008;2023-04-06T13:45:03;13.40;38.70
53498;DHT22;39382;47.168;16.008;2023-04-06T13:47:29;13.40;39.10
53498;DHT22;39382;47.168;16.008;2023-04-06T13:49:55;13.50;37.80
53498;DHT22;39382;47.168;16.008;2023-04-06T13:52:21;13.50;40.40
53498;DHT22;39382;47.168;16.008;2023-04-06T13:54:48;13.50;40.10
53498;DHT22;39382;47.168;16.008;2023-04-06T13:57:13;13.60;39.90
53498;DHT22;39382;47.168;16.008;2023-04-06T13:59:39;13.80;40.10
53498;DHT22;39382;47.168;16.008;2023-04-06T14:02:07;13.90;39.10
53498;DHT22;39382;47.168;16.008;2023-04-06T14:04:33;13.90;37.60
53498;DHT22;39382;47.168;16.008;2023-04-06T14:07:00;13.60;36.30
53498;DHT22;39382;47.168;16.008;2023-04-06T14:09:27;13.20;36.30
53498;DHT22;39382;47.168;16.008;2023-04-06T14:11:53;13.00;37.10
53498;DHT22;39382;47.168;16.008;2023-04-06T14:14:19;12.80;36.40
53498;DHT22;39382;47.168;16.008;2023-04-06T14:16:46;12.90;37.00
53498;DHT22;39382;47.168;16.008;2023-04-06T14:19:16;12.90;37.10
53498;DHT22;39382;47.168;16.008;2023-04-06T14:21:46;12.80;37.20
53498;DHT22;39382;47.168;16.008;2023-04-06T14:24:13;12.90;36.20
53498;DHT22;39382;47.168;16.008;2023-04-06T14:26:39;12.90;35.10
53498;DHT22;39382;47.168;16.008;2023-04-06T14:29:07;12.90;35.50
53498;DHT22;39382;47.168;16.008;2023-04-06T14:31:33;12.90;35.50
53498;DHT22;39382;47.168;16.008;2023-04-06T14:34:01;12.80;35.80
53498;DHT22;39382;47.168;16.008;2023-04-06T14:36:28;12.70;35.20
53498;DHT22;39382;47.168;16.008;2023-04-06T14:38:58;12.80;36.30
53498;DHT22;39382;47.168;16.008;2023-04-06T14:41:24;12.90;36.40
53498;DHT22;39382;47.168;16.008;2023-04-06T14:43:50;12.90;35.70
53498;DHT22;39382;47.168;16.008;2023-04-06T14:46:18;12.80;35.50
53498;DHT22;39382;47.168;16.008;2023-04-06T14:48:47;12.80;35.70
53498;DHT22;39382;47.168;16.008;2023-04-06T14:51:12;12.80;35.60
53498;DHT22;39382;47.168;16.008;2023-04-06T14:53:38;12.80;34.90
53498;DHT22;39382;47.168;16.008;2023-04-06T14:56:04;12.70;35.30
53498;DHT22;39382;47.168;16.008;2023-04-06T14:58:30;12.70;35.70
53498;DHT22;39382;47.168;16.008;2023-04-06T15:01:00;12.60;34.80
53498;DHT22;39382;47.168;16.008;2023-04-06T15:03:29;12.50;35.50
53498;DHT22;39382;47.168;16.008;2023-04-06T15:05:56;12.50;35.50
53498;DHT22;39382;47.168;16.008;2023-04-06T15:08:22;12.50;35.30
53498;DHT22;39382;47.168;16.008;2023-04-06T15:10:49;12.50;35.00
53498;DHT22;39382;47.168;16.008;2023-04-06T15:13:15;12.40;35.30
53498;DHT22;39382;47.168;16.008;2023-04-06T15:15:41;12.30;35.40
53498;DHT22;39382;47.168;16.008;2023-04-06T15:18:07;12.30;35.50
53498;DHT22;39382;47.168;16.008;2023-04-06T15:20:33;12.30;35.30
53498;DHT22;39382;47.168;16.008;2023-04-06T15:23:01;12.30;35.20
53498;DHT22;39382;47.168;16.008;2023-04-06T15:25:27;12.20;35.40